Time;durP1;ratioP1;P1;durP2;ratioP2;P2;SDS_P1;SDS_P2;PMS_P1;PMS_P2;Temp;Humidity;BMP_temperature;BMP_pressure;BME280_temperature;BME280_humidity;BME280_pressure;Samples;Min_cycle;Max_cycle;Signal;HPM_P1;HPM_P2
2021/01/26 00:00:57;;;;;;;2.87;2.67;;;20.00;23.00;;;;;;5055519;28;20904;-50
2021/01/26 00:03:23;;;;;;;2.30;2.10;;;20.00;22.50;;;;;;5055315;28;20410;-51
2021/01/26 00:05:50;;;;;;;2.20;2.00;;;20.00;22.50;;;;;;5055401;28;20279;-51
2021/01/26 00:08:16;;;;;;;2.40;2.20;;;20.00;22.50;;;;;;5054999;28;20785;-51
2021/01/26 00:10:42;;;;;;;1.60;1.50;;;20.00;22.40;;;;;;5055307;28;20248;-51
2021/01/26 00:13:08;;;;;;;2.13;1.90;;;20.00;22.40;;;;;;5055153;28;20249;-50
2021/01/26 00:15:35;;;;;;;1.90;1.80;;;20.00;22.40;;;;;;5055352;28;20545;-51
2021/01/26 00:18:01;;;;;;;2.67;2.33;;;19.90;22.30;;;;;;5055205;28;20595;-51
2021/01/26 00:20:27;;;;;;;2.15;2.00;;;19.90;22.40;;;;;;5055216;28;20519;-51
2021/01/26 00:22:53;;;;;;;2.30;2.10;;;19.90;22.30;;;;;;5054522;28;20199;-51
2021/01/26 00:25:23;;;;;;;2.22;2.05;;;20.00;22.50;;;;;;5055206;28;20155;-50
2021/01/26 00:27:49;;;;;;;1.75;1.65;;;20.00;22.50;;;;;;5055174;28;20640;-51
2021/01/26 00:30:18;;;;;;;1.87;1.70;;;19.90;22.30;;;;;;5055219;28;20242;-51
2021/01/26 00:32:44;;;;;;;1.88;1.65;;;20.00;22.40;;;;;;5054830;28;20634;-51
2021/01/26 00:35:11;;;;;;;2.90;1.83;;;19.90;22.30;;;;;;5054931;28;20198;-50
2021/01/26 00:37:37;;;;;;;2.83;2.20;;;19.90;22.30;;;;;;5054473;28;20159;-51
2021/01/26 00:40:04;;;;;;;2.13;1.93;;;19.90;22.30;;;;;;5054929;28;20206;-50
2021/01/26 00:42:29;;;;;;;2.90;1.80;;;19.90;22.30;;;;;;5054675;28;20315;-51
2021/01/26 00:44:55;;;;;;;3.20;2.50;;;19.90;22.30;;;;;;5037185;28;20642;-51
2021/01/26 00:47:21;;;;;;;2.27;1.60;;;19.90;22.30;;;;;;5054704;28;20273;-51
2021/01/26 00:49:46;;;;;;;3.90;2.50;;;19.90;22.30;;;;;;5054922;28;20694;-51
2021/01/26 00:52:12;;;;;;;2.00;1.90;;;19.90;22.30;;;;;;5054097;28;20249;-51
2021/01/26 00:54:38;;;;;;;1.73;1.63;;;19.90;22.30;;;;;;5054665;28;20238;-51
2021/01/26 00:57:04;;;;;;;1.83;1.70;;;20.00;22.40;;;;;;5054527;28;20455;-51
2021/01/26 00:59:30;;;;;;;2.30;2.10;;;19.90;22.30;;;;;;5036641;28;20530;-51
2021/01/26 01:01:57;;;;;;;2.00;1.80;;;19.90;22.30;;;;;;5054464;28;20171;-51
2021/01/26 01:04:23;;;;;;;2.00;1.83;;;19.90;22.90;;;;;;5054451;28;20182;-51
2021/01/26 01:06:49;;;;;;;2.05;1.88;;;19.90;22.30;;;;;;5054349;28;20187;-51
2021/01/26 01:09:14;;;;;;;2.50;1.90;;;19.90;22.30;;;;;;5054126;28;20162;-50
2021/01/26 01:11:40;;;;;;;2.50;2.10;;;19.90;22.30;;;;;;5054197;28;20215;-52
2021/01/26 01:14:06;;;;;;;2.00;1.80;;;19.90;22.30;;;;;;5054413;28;20519;-51
2021/01/26 01:16:35;;;;;;;1.80;1.70;;;19.90;22.30;;;;;;5054162;28;20453;-51
2021/01/26 01:19:01;;;;;;;2.30;2.05;;;19.90;22.30;;;;;;5054089;28;20851;-50
2021/01/26 01:21:26;;;;;;;2.17;1.97;;;19.90;22.30;;;;;;5054242;28;20174;-51
2021/01/26 01:23:52;;;;;;;2.60;2.40;;;19.90;22.30;;;;;;5053608;28;20406;-51
2021/01/26 01:26:18;;;;;;;1.83;1.73;;;19.90;22.30;;;;;;5053861;28;20673;-51
2021/01/26 01:28:43;;;;;;;2.07;1.87;;;19.90;22.30;;;;;;5053844;28;20170;-51
2021/01/26 01:31:09;;;;;;;2.13;1.83;;;19.90;22.30;;;;;;5053947;28;20159;-50
2021/01/26 01:33:35;;;;;;;3.10;2.23;;;19.90;22.30;;;;;;5053588;28;20250;-51
2021/01/26 01:36:00;;;;;;;2.80;2.50;;;19.90;22.90;;;;;;5053426;28;20215;-50
2021/01/26 01:38:26;;;;;;;1.80;1.60;;;19.90;22.30;;;;;;5053273;28;20167;-50
2021/01/26 01:40:53;;;;;;;2.37;2.10;;;19.90;22.30;;;;;;5053821;28;20163;-51
2021/01/26 01:43:20;;;;;;;2.00;1.85;;;19.90;22.30;;;;;;5053538;28;20406;-51
2021/01/26 01:45:45;;;;;;;1.77;1.67;;;19.90;22.30;;;;;;5053779;28;20233;-50
2021/01/26 01:48:18;;;;;;;2.33;1.77;;;19.90;22.30;;;;;;5053782;28;20607;-51
2021/01/26 01:51:01;;;;;;;1.70;1.60;;;19.90;22.30;;;;;;5036319;28;20160;-50
2021/01/26 01:53:34;;;;;;;2.22;2.05;;;19.90;22.30;;;;;;5053207;28;20151;-51
2021/01/26 01:56:14;;;;;;;2.17;2.03;;;19.90;22.30;;;;;;5053567;28;20191;-51
2021/01/26 01:58:43;;;;;;;1.60;1.50;;;19.90;22.30;;;;;;5053386;28;20622;-51
2021/01/26 02:01:14;;;;;;;1.48;1.38;;;19.90;22.40;;;;;;5053585;28;20191;-51
2021/01/26 02:04:04;;;;;;;2.22;2.03;;;19.90;22.90;;;;;;5053662;28;20197;-51
2021/01/26 02:06:33;;;;;;;2.95;2.35;;;19.90;22.30;;;;;;5053418;28;20642;-51
2021/01/26 02:09:12;;;;;;;1.83;1.70;;;19.90;22.30;;;;;;5053088;28;20238;-50
2021/01/26 02:11:38;;;;;;;2.17;1.98;;;19.90;22.40;;;;;;5053280;28;20214;-51
2021/01/26 02:14:04;;;;;;;2.27;2.07;;;19.80;22.30;;;;;;5035432;28;20175;-51
2021/01/26 02:16:38;;;;;;;2.28;2.08;;;19.80;22.30;;;;;;5053433;28;20163;-51
2021/01/26 02:19:35;;;;;;;2.10;1.90;;;19.80;22.40;;;;;;5053269;28;20606;-51
2021/01/26 02:22:28;;;;;;;2.40;2.20;;;19.80;22.40;;;;;;5053424;28;20163;-51
2021/01/26 02:25:31;;;;;;;2.33;2.10;;;19.80;22.40;;;;;;5053437;28;20166;-51
2021/01/26 02:28:12;;;;;;;2.03;1.83;;;19.80;22.40;;;;;;5053139;28;20195;-50
2021/01/26 02:30:44;;;;;;;2.17;1.98;;;19.80;22.40;;;;;;5053285;28;20166;-51
2021/01/26 02:33:12;;;;;;;2.00;1.70;;;19.80;22.40;;;;;;5053243;28;20166;-51
2021/01/26 02:36:18;;;;;;;1.75;1.65;;;19.80;22.40;;;;;;5053102;28;20284;-51
2021/01/26 02:39:14;;;;;;;1.88;1.67;;;19.80;22.90;;;;;;5052835;28;20159;-51
2021/01/26 02:41:52;;;;;;;1.70;1.58;;;19.80;22.40;;;;;;5053128;28;20152;-51
2021/01/26 02:44:54;;;;;;;2.58;1.70;;;19.80;22.40;;;;;;5053011;28;20594;-51
2021/01/26 02:47:53;;;;;;;1.70;1.60;;;19.80;22.50;;;;;;5055346;28;20642;-51
2021/01/26 02:50:33;;;;;;;2.30;1.70;;;19.80;22.50;;;;;;5056946;28;20152;-51
2021/01/26 02:53:35;;;;;;;1.63;1.50;;;19.80;22.50;;;;;;5056564;28;20611;-51
2021/01/26 02:56:22;;;;;;;1.73;1.63;;;19.70;22.40;;;;;;5056897;28;20194;-51
2021/01/26 02:59:16;;;;;;;1.98;1.85;;;19.70;22.40;;;;;;5056839;28;20237;-51
2021/01/26 03:01:48;;;;;;;1.40;1.30;;;19.70;22.50;;;;;;5056868;28;20160;-51
2021/01/26 03:04:24;;;;;;;2.17;1.98;;;19.70;22.50;;;;;;5056556;28;20159;-51
2021/01/26 03:06:52;;;;;;;2.20;1.83;;;19.70;22.50;;;;;;5056683;28;20269;-51
2021/01/26 03:09:31;;;;;;;2.17;1.98;;;19.70;22.50;;;;;;5056351;28;20611;-50
2021/01/26 03:12:20;;;;;;;1.90;1.70;;;19.70;22.50;;;;;;5047843;28;20254;-50
2021/01/26 03:14:48;;;;;;;2.25;2.05;;;19.70;22.50;;;;;;5036645;28;20619;-51
2021/01/26 03:17:37;;;;;;;2.20;2.00;;;19.70;22.50;;;;;;5036614;28;20626;-50
2021/01/26 03:20:18;;;;;;;2.10;1.90;;;19.70;22.50;;;;;;5036694;28;20164;-50
2021/01/26 03:22:51;;;;;;;1.50;1.40;;;19.70;22.50;;;;;;5036008;28;20167;-51
2021/01/26 03:25:20;;;;;;;1.83;1.70;;;19.70;22.50;;;;;;5036372;28;20156;-51
2021/01/26 03:27:47;;;;;;;1.73;1.45;;;19.70;22.50;;;;;;5036371;28;20156;-51
2021/01/26 03:30:19;;;;;;;1.75;1.52;;;19.70;22.50;;;;;;5036523;28;20156;-51
2021/01/26 03:32:50;;;;;;;1.63;1.52;;;19.70;22.50;;;;;;5036290;28;20163;-51
2021/01/26 03:35:17;;;;;;;2.15;1.90;;;19.70;22.50;;;;;;5036187;28;20176;-50
2021/01/26 03:37:53;;;;;;;2.20;2.00;;;19.70;22.00;;;;;;5035759;28;20241;-51
2021/01/26 03:40:20;;;;;;;1.60;1.50;;;19.80;22.10;;;;;;5036352;28;20209;-51
2021/01/26 03:42:46;;;;;;;1.48;1.38;;;19.70;22.50;;;;;;5036077;28;20156;-51
2021/01/26 03:45:12;;;;;;;1.55;1.45;;;19.70;22.50;;;;;;5036108;28;20163;-51
2021/01/26 03:48:06;;;;;;;2.13;1.73;;;19.70;22.50;;;;;;5036010;28;20155;-52
2021/01/26 03:50:44;;;;;;;1.85;1.75;;;19.70;22.40;;;;;;5036018;28;20156;-51
2021/01/26 03:53:34;;;;;;;1.58;1.48;;;19.80;22.50;;;;;;5035417;28;20170;-50
2021/01/26 03:56:14;;;;;;;1.60;1.50;;;19.80;22.50;;;;;;5035808;28;20194;-50
2021/01/26 03:58:55;;;;;;;1.88;1.70;;;19.80;22.50;;;;;;5035197;28;20670;-51
2021/01/26 04:01:35;;;;;;;1.90;1.70;;;19.80;22.50;;;;;;5035853;28;20626;-51
2021/01/26 04:04:03;;;;;;;1.50;1.40;;;19.80;22.50;;;;;;5035687;28;20156;-51
2021/01/26 04:06:36;;;;;;;1.52;1.42;;;19.80;22.50;;;;;;5035609;28;20635;-51
2021/01/26 04:09:10;;;;;;;1.98;1.77;;;19.80;22.50;;;;;;5035130;28;20519;-50
2021/01/26 04:11:52;;;;;;;2.08;1.88;;;19.80;22.50;;;;;;5039743;28;20210;-50
2021/01/26 04:14:29;;;;;;;1.40;1.30;;;19.80;22.50;;;;;;5055413;28;20162;-50
2021/01/26 04:17:11;;;;;;;1.70;1.60;;;19.80;22.50;;;;;;5055520;28;20159;-51
2021/01/26 04:19:41;;;;;;;1.90;1.80;;;19.80;22.50;;;;;;5055414;28;20159;-51
2021/01/26 04:22:09;;;;;;;1.50;1.20;;;19.80;22.50;;;;;;5055243;28;20151;-50
2021/01/26 04:24:36;;;;;;;2.00;1.30;;;19.80;22.50;;;;;;5055135;28;20205;-50
2021/01/26 04:27:08;;;;;;;1.67;1.35;;;19.80;22.50;;;;;;5055407;28;20191;-51
2021/01/26 04:29:34;;;;;;;1.60;1.50;;;19.80;22.50;;;;;;5055156;28;20158;-51
2021/01/26 04:32:00;;;;;;;1.77;1.67;;;19.80;22.50;;;;;;5055129;28;20159;-51
2021/01/26 04:34:25;;;;;;;1.47;1.37;;;19.80;22.50;;;;;;5055028;28;20155;-51
2021/01/26 04:36:51;;;;;;;1.47;1.37;;;19.80;22.50;;;;;;5054972;28;20523;-50
2021/01/26 04:39:16;;;;;;;1.97;1.77;;;19.80;22.50;;;;;;5054396;28;20155;-51
2021/01/26 04:41:52;;;;;;;1.50;1.40;;;19.80;22.40;;;;;;5055113;28;20246;-51
2021/01/26 04:44:29;;;;;;;1.88;1.77;;;19.80;22.40;;;;;;5054763;28;20155;-51
2021/01/26 04:47:19;;;;;;;1.48;1.38;;;19.80;22.40;;;;;;5054852;28;20183;-51
2021/01/26 04:49:51;;;;;;;1.60;1.50;;;19.80;23.00;;;;;;5054897;28;20236;-51
2021/01/26 04:52:24;;;;;;;2.10;1.90;;;19.80;22.40;;;;;;5054019;28;20150;-51
2021/01/26 04:55:29;;;;;;;1.67;1.58;;;19.80;22.40;;;;;;5054685;28;20158;-53
2021/01/26 04:58:15;;;;;;;1.67;1.50;;;19.80;22.40;;;;;;5053758;28;20672;-51
2021/01/26 05:00:54;;;;;;;1.70;1.60;;;19.80;22.40;;;;;;5054732;28;20671;-51
2021/01/26 05:03:23;;;;;;;1.60;1.50;;;19.80;22.40;;;;;;5054443;28;20161;-50
2021/01/26 05:05:55;;;;;;;1.40;1.30;;;19.80;22.40;;;;;;5054286;28;20183;-53
2021/01/26 05:08:26;;;;;;;1.50;1.40;;;19.80;22.40;;;;;;5045464;28;20151;-51
2021/01/26 05:11:15;;;;;;;1.42;1.33;;;19.90;22.40;;;;;;5054021;28;20242;-51
2021/01/26 05:13:45;;;;;;;1.40;1.30;;;19.80;22.30;;;;;;5053541;28;20195;-51
2021/01/26 05:16:28;;;;;;;2.10;1.90;;;19.80;22.30;;;;;;5054288;28;20590;-52
2021/01/26 05:19:16;;;;;;;2.00;1.55;;;19.90;22.30;;;;;;5054335;28;20200;-51
2021/01/26 05:22:10;;;;;;;1.58;1.40;;;19.90;22.40;;;;;;5053244;28;20183;-51
2021/01/26 05:24:44;;;;;;;1.30;1.20;;;19.90;22.30;;;;;;5054371;28;20163;-50
2021/01/26 05:27:10;;;;;;;2.00;1.70;;;19.90;22.30;;;;;;5053859;28;20205;-51
2021/01/26 05:29:36;;;;;;;1.70;1.60;;;19.90;22.30;;;;;;5053903;28;20159;-51
2021/01/26 05:32:05;;;;;;;1.63;1.52;;;19.90;22.30;;;;;;5054034;28;20159;-50
2021/01/26 05:34:33;;;;;;;1.77;1.50;;;19.90;22.30;;;;;;5053997;28;20472;-51
2021/01/26 05:36:59;;;;;;;1.50;1.40;;;19.90;22.30;;;;;;5053730;28;20186;-51
2021/01/26 05:39:34;;;;;;;1.75;1.65;;;19.90;22.30;;;;;;5053407;28;20164;-50
2021/01/26 05:41:59;;;;;;;1.50;1.40;;;19.90;21.80;;;;;;5053815;28;20173;-51
2021/01/26 05:44:26;;;;;;;1.23;1.03;;;19.90;22.30;;;;;;5053631;28;20155;-51
2021/01/26 05:46:54;;;;;;;1.58;1.23;;;19.90;22.30;;;;;;5053788;28;20179;-50
2021/01/26 05:49:36;;;;;;;1.90;1.70;;;19.90;22.30;;;;;;5053551;28;20156;-51
2021/01/26 05:52:06;;;;;;;1.63;1.52;;;19.90;22.20;;;;;;5053721;28;20270;-51
2021/01/26 05:54:37;;;;;;;2.40;1.65;;;19.90;22.20;;;;;;5053139;28;20445;-50
2021/01/26 05:57:04;;;;;;;1.40;1.20;;;19.90;22.20;;;;;;5053575;28;20159;-51
2021/01/26 05:59:36;;;;;;;1.30;1.20;;;19.90;22.20;;;;;;5053490;28;20155;-51
2021/01/26 06:02:19;;;;;;;1.77;1.50;;;19.90;22.20;;;;;;5053560;28;20498;-51
2021/01/26 06:04:45;;;;;;;1.75;1.65;;;19.90;22.20;;;;;;5053572;28;20154;-50
2021/01/26 06:07:37;;;;;;;1.77;1.67;;;19.90;22.20;;;;;;5053130;28;20272;-51
2021/01/26 06:10:20;;;;;;;2.00;1.50;;;19.90;22.10;;;;;;5050733;28;20630;-50
2021/01/26 06:12:54;;;;;;;1.80;1.70;;;19.90;22.10;;;;;;5052640;28;20223;-51
2021/01/26 06:15:28;;;;;;;1.80;1.30;;;20.00;22.20;;;;;;5053255;28;20240;-51
2021/01/26 06:18:12;;;;;;;1.88;1.65;;;20.00;22.20;;;;;;5053122;28;20155;-51
2021/01/26 06:20:38;;;;;;;2.28;2.00;;;20.00;22.20;;;;;;5054448;28;20151;-51
2021/01/26 06:23:26;;;;;;;1.60;1.50;;;20.00;22.20;;;;;;5056945;28;20622;-50
2021/01/26 06:25:57;;;;;;;2.00;1.50;;;20.00;22.20;;;;;;5057226;28;20236;-50
2021/01/26 06:28:40;;;;;;;1.88;1.58;;;20.00;22.20;;;;;;5057245;28;20148;-51
2021/01/26 06:31:45;;;;;;;1.70;1.60;;;20.00;22.10;;;;;;5057266;28;20510;-51
2021/01/26 06:34:21;;;;;;;1.30;1.20;;;20.00;22.10;;;;;;4995590;28;20200;-51
2021/01/26 06:37:20;;;;;;;1.65;1.55;;;20.00;22.10;;;;;;4995553;28;20570;-50
2021/01/26 06:40:21;;;;;;;1.42;1.33;;;20.00;22.10;;;;;;5042867;28;20431;-50
2021/01/26 06:43:10;;;;;;;1.52;1.42;;;20.00;22.10;;;;;;5024343;28;20198;-51
2021/01/26 06:45:56;;;;;;;1.42;1.30;;;20.00;22.10;;;;;;5048497;28;20214;-52
2021/01/26 06:48:27;;;;;;;1.38;1.27;;;20.00;22.10;;;;;;5056678;28;20157;-50
2021/01/26 06:51:11;;;;;;;2.10;1.50;;;20.00;22.10;;;;;;5057225;28;20187;-50
2021/01/26 06:53:57;;;;;;;1.98;1.42;;;20.00;22.00;;;;;;5056440;28;20151;-51
2021/01/26 06:56:41;;;;;;;1.70;1.55;;;20.10;22.10;;;;;;5056768;28;20159;-51
2021/01/26 06:59:48;;;;;;;1.30;1.20;;;20.00;22.00;;;;;;5056664;28;20171;-51
2021/01/26 07:02:23;;;;;;;1.25;1.15;;;20.00;22.00;;;;;;5056386;28;20159;-50
2021/01/26 07:04:55;;;;;;;2.47;1.75;;;20.00;22.00;;;;;;5056627;28;20162;-51
2021/01/26 07:07:26;;;;;;;1.35;1.25;;;20.00;22.00;;;;;;5055897;28;20191;-51
2021/01/26 07:09:57;;;;;;;1.42;1.33;;;20.00;22.00;;;;;;5056645;28;20155;-50
2021/01/26 07:12:40;;;;;;;1.52;1.42;;;20.00;22.00;;;;;;5056375;28;20215;-50
2021/01/26 07:15:21;;;;;;;1.58;1.48;;;20.10;22.60;;;;;;5056392;28;20246;-51
2021/01/26 07:18:22;;;;;;;1.85;1.60;;;20.10;22.00;;;;;;5055834;28;20159;-50
2021/01/26 07:21:03;;;;;;;2.17;1.98;;;20.10;22.00;;;;;;5056174;28;20148;-50
2021/01/26 07:23:40;;;;;;;1.35;1.25;;;20.10;22.00;;;;;;5055607;28;20151;-50
2021/01/26 07:26:20;;;;;;;1.52;1.35;;;20.10;22.00;;;;;;5055935;28;20183;-51
2021/01/26 07:29:11;;;;;;;1.40;1.30;;;20.10;22.00;;;;;;5055843;28;20154;-51
2021/01/26 07:31:47;;;;;;;1.50;1.38;;;20.10;22.00;;;;;;5055539;28;20160;-51
2021/01/26 07:35:02;;;;;;;1.35;1.25;;;20.10;22.00;;;;;;5055252;28;20151;-51
2021/01/26 07:37:31;;;;;;;1.55;1.45;;;20.10;21.90;;;;;;5025411;28;20190;-51
2021/01/26 07:40:20;;;;;;;1.25;1.15;;;20.10;21.90;;;;;;5059649;28;20155;-51
2021/01/26 07:42:56;;;;;;;1.60;1.50;;;20.20;21.90;;;;;;5055539;28;20160;-51
2021/01/26 07:45:32;;;;;;;1.88;1.42;;;20.20;21.90;;;;;;5037732;28;20170;-52
2021/01/26 07:48:13;;;;;;;1.70;1.48;;;20.20;21.90;;;;;;5071357;28;20167;-52
2021/01/26 07:50:46;;;;;;;2.47;1.50;;;20.20;21.90;;;;;;5037879;28;20162;-51
2021/01/26 07:53:20;;;;;;;1.52;1.33;;;20.20;21.90;;;;;;5055145;28;20155;-51
2021/01/26 07:55:56;;;;;;;2.03;1.85;;;20.20;21.90;;;;;;5054561;28;20194;-50
2021/01/26 07:58:24;;;;;;;2.33;1.65;;;20.20;21.90;;;;;;5037257;28;20252;-51
2021/01/26 08:00:56;;;;;;;1.52;1.42;;;20.20;21.80;;;;;;5039226;28;20179;-50
2021/01/26 08:03:24;;;;;;;2.10;1.65;;;20.20;21.80;;;;;;5052060;28;20170;-51
2021/01/26 08:05:52;;;;;;;1.60;1.48;;;20.20;21.80;;;;;;5049280;28;20664;-51
2021/01/26 08:08:26;;;;;;;1.30;1.20;;;20.20;21.80;;;;;;5053962;28;20562;-51
2021/01/26 08:11:12;;;;;;;2.15;1.70;;;20.30;21.80;;;;;;5046443;28;20173;-51
2021/01/26 08:13:48;;;;;;;1.52;1.42;;;20.30;21.80;;;;;;5035260;28;20545;-51
2021/01/26 08:16:29;;;;;;;1.98;1.70;;;20.30;21.70;;;;;;5053637;28;20198;-51
2021/01/26 08:18:56;;;;;;;1.85;1.48;;;20.30;21.60;;;;;;5034577;28;20171;-50
2021/01/26 08:21:28;;;;;;;1.50;1.40;;;20.30;21.60;;;;;;5045985;28;20681;-50
2021/01/26 08:24:28;;;;;;;1.83;1.55;;;20.30;21.60;;;;;;5047426;28;20256;-51
2021/01/26 08:27:16;;;;;;;2.05;1.58;;;20.30;21.60;;;;;;5045476;28;20237;-51
2021/01/26 08:29:44;;;;;;;1.88;1.50;;;20.30;21.50;;;;;;5046511;28;20262;-50
2021/01/26 08:32:22;;;;;;;1.55;1.45;;;20.30;21.50;;;;;;5048879;28;20159;-50
2021/01/26 08:35:08;;;;;;;1.40;1.30;;;20.30;21.50;;;;;;5053378;28;20162;-51
2021/01/26 08:37:42;;;;;;;1.50;1.40;;;20.40;21.60;;;;;;5043279;28;20170;-50
2021/01/26 08:40:32;;;;;;;1.70;1.23;;;20.40;21.50;;;;;;5053815;28;20557;-51
2021/01/26 08:43:02;;;;;;;1.40;1.30;;;20.40;21.50;;;;;;5032644;28;20215;-51
2021/01/26 08:45:27;;;;;;;1.38;1.20;;;20.40;21.50;;;;;;5050425;28;20190;-51
2021/01/26 08:48:00;;;;;;;2.20;1.60;;;20.40;21.40;;;;;;5053137;28;20622;-50
2021/01/26 08:51:01;;;;;;;1.60;1.50;;;20.40;21.40;;;;;;5053936;28;20156;-51
2021/01/26 08:53:26;;;;;;;1.50;1.40;;;20.40;21.40;;;;;;5046016;28;20221;-50
2021/01/26 08:55:53;;;;;;;1.90;1.40;;;20.40;21.30;;;;;;5050643;28;20615;-51
2021/01/26 08:58:38;;;;;;;2.40;1.65;;;20.40;21.30;;;;;;5053036;28;20208;-51
2021/01/26 09:01:10;;;;;;;1.98;1.60;;;20.50;21.30;;;;;;5051649;28;20185;-49
2021/01/26 09:03:39;;;;;;;2.30;1.67;;;20.50;21.30;;;;;;5050347;28;20175;-50
2021/01/26 09:06:13;;;;;;;1.75;1.25;;;20.50;21.30;;;;;;5053020;28;20250;-51
2021/01/26 09:08:42;;;;;;;1.73;1.48;;;20.50;21.30;;;;;;5047857;28;20660;-50
2021/01/26 09:11:22;;;;;;;1.70;1.60;;;20.50;21.30;;;;;;5047910;28;20163;-51
2021/01/26 09:13:49;;;;;;;1.85;1.33;;;20.50;21.30;;;;;;5052086;28;20197;-51
2021/01/26 09:16:23;;;;;;;1.55;1.40;;;20.50;21.20;;;;;;5051382;28;20648;-50
2021/01/26 09:18:53;;;;;;;1.40;1.30;;;20.50;21.10;;;;;;5047217;28;20534;-50
2021/01/26 09:21:20;;;;;;;1.75;1.65;;;20.50;21.00;;;;;;5049221;28;20171;-50
2021/01/26 09:23:46;;;;;;;1.50;1.40;;;20.50;21.10;;;;;;5058984;28;20209;-52
2021/01/26 09:26:13;;;;;;;1.65;1.55;;;20.50;21.10;;;;;;5047223;28;20625;-51
2021/01/26 09:28:44;;;;;;;1.42;1.33;;;20.50;21.10;;;;;;5049161;28;20237;-52
2021/01/26 09:31:12;;;;;;;1.50;1.40;;;20.50;21.00;;;;;;5053660;28;20178;-51
2021/01/26 09:33:39;;;;;;;1.30;1.20;;;20.50;21.10;;;;;;5053191;28;20166;-51
2021/01/26 09:36:08;;;;;;;1.63;1.52;;;20.50;21.00;;;;;;5052547;28;20175;-51
2021/01/26 09:38:45;;;;;;;1.25;1.13;;;20.50;21.00;;;;;;5035355;28;20525;-51
2021/01/26 09:41:31;;;;;;;1.85;1.70;;;20.60;21.00;;;;;;5053372;28;20181;-52
2021/01/26 09:44:02;;;;;;;1.83;1.73;;;20.60;20.80;;;;;;5050348;28;20167;-52
2021/01/26 09:46:42;;;;;;;2.25;1.52;;;20.70;20.70;;;;;;5053256;28;20286;-53
2021/01/26 09:49:11;;;;;;;2.75;1.70;;;20.70;20.70;;;;;;5034988;28;20171;-52
2021/01/26 09:51:48;;;;;;;1.30;1.20;;;20.70;20.70;;;;;;5052912;28;20167;-51
2021/01/26 09:54:19;;;;;;;1.50;1.40;;;20.80;20.80;;;;;;5034757;28;20624;-51
2021/01/26 09:56:45;;;;;;;2.03;1.40;;;20.80;20.80;;;;;;5051741;28;20171;-52
2021/01/26 09:59:13;;;;;;;2.10;1.60;;;20.80;20.70;;;;;;5034484;28;20171;-54
2021/01/26 10:01:43;;;;;;;1.23;1.13;;;20.80;20.80;;;;;;5033011;28;20187;-52
2021/01/26 10:04:10;;;;;;;1.30;1.20;;;20.80;21.30;;;;;;5053021;28;20186;-52
2021/01/26 10:06:36;;;;;;;2.92;1.90;;;20.80;20.80;;;;;;5050706;28;20238;-52
2021/01/26 10:09:16;;;;;;;1.48;1.38;;;20.80;20.80;;;;;;5037357;28;20167;-51
2021/01/26 10:11:42;;;;;;;1.25;1.15;;;20.80;20.70;;;;;;5032907;28;20214;-50
2021/01/26 10:14:26;;;;;;;1.60;1.00;;;22.90;22.20;;;;;;5033663;28;20175;-50
2021/01/26 10:16:58;;;;;;;1.40;1.30;;;20.70;20.70;;;;;;5050676;28;20457;-50
2021/01/26 10:19:30;;;;;;;1.55;1.45;;;20.80;20.80;;;;;;5052584;28;20313;-50
2021/01/26 10:22:14;;;;;;;1.42;1.33;;;20.80;20.80;;;;;;5052647;28;20155;-51
2021/01/26 10:24:40;;;;;;;1.35;1.23;;;20.90;20.80;;;;;;5052866;28;20163;-51
2021/01/26 10:27:13;;;;;;;1.92;1.40;;;20.90;20.90;;;;;;5052211;28;20232;-51
2021/01/26 10:29:42;;;;;;;1.20;1.10;;;20.90;20.90;;;;;;5052174;28;20179;-52
2021/01/26 10:32:13;;;;;;;1.75;1.55;;;21.00;20.80;;;;;;5052204;28;20159;-50
2021/01/26 10:34:49;;;;;;;1.75;1.65;;;21.00;20.60;;;;;;5038358;28;20241;-51
2021/01/26 10:37:24;;;;;;;1.20;1.10;;;21.10;20.50;;;;;;5013495;28;20172;-51
2021/01/26 10:40:18;;;;;;;1.60;1.50;;;21.10;20.30;;;;;;5039398;28;20166;-52
2021/01/26 10:42:58;;;;;;;1.70;1.60;;;21.20;20.40;;;;;;5044686;28;20183;-50
2021/01/26 10:45:41;;;;;;;1.45;1.35;;;21.20;20.20;;;;;;5039159;28;20199;-51
2021/01/26 10:48:25;;;;;;;1.40;1.30;;;21.20;20.40;;;;;;5044242;28;20178;-51
2021/01/26 10:50:52;;;;;;;1.30;1.15;;;21.20;20.20;;;;;;5050914;28;20170;-51
2021/01/26 10:53:43;;;;;;;1.58;1.25;;;21.20;20.20;;;;;;5046878;28;20167;-51
2021/01/26 10:56:09;;;;;;;2.13;1.35;;;21.20;20.20;;;;;;5052024;28;20271;-51
2021/01/26 10:58:35;;;;;;;1.35;1.25;;;21.20;20.20;;;;;;5050154;28;20179;-51
2021/01/26 11:01:03;;;;;;;1.70;1.60;;;21.10;20.20;;;;;;5050137;28;20245;-50
2021/01/26 11:03:29;;;;;;;1.67;1.58;;;21.10;20.30;;;;;;5043558;28;20437;-51
2021/01/26 11:05:55;;;;;;;1.50;1.33;;;23.00;21.60;;;;;;5051016;28;20190;-51
2021/01/26 11:08:21;;;;;;;1.30;1.20;;;21.10;20.40;;;;;;5044303;28;20399;-50
2021/01/26 11:10:47;;;;;;;2.95;1.50;;;21.10;20.40;;;;;;5050104;28;20630;-51
2021/01/26 11:13:14;;;;;;;1.73;1.55;;;21.10;20.40;;;;;;5034400;28;20214;-51
2021/01/26 11:15:39;;;;;;;1.60;1.50;;;21.00;20.40;;;;;;5051257;28;20166;-50
2021/01/26 11:18:05;;;;;;;1.80;1.50;;;21.10;20.50;;;;;;5055679;28;20526;-51
2021/01/26 11:20:31;;;;;;;1.27;1.17;;;21.00;20.40;;;;;;5050984;28;20166;-51
2021/01/26 11:22:57;;;;;;;2.47;1.30;;;21.00;20.50;;;;;;5053469;28;20177;-50
2021/01/26 11:25:25;;;;;;;1.47;1.37;;;21.00;20.50;;;;;;5053426;28;20746;-50
2021/01/26 11:27:54;;;;;;;1.23;1.10;;;21.00;20.50;;;;;;5053944;28;20589;-50
2021/01/26 11:30:21;;;;;;;1.75;1.65;;;21.00;20.50;;;;;;5053299;28;20171;-51
2021/01/26 11:32:47;;;;;;;1.65;1.55;;;21.00;20.50;;;;;;5054468;28;20182;-51
2021/01/26 11:35:16;;;;;;;1.40;1.30;;;21.00;20.50;;;;;;5052823;28;20684;-51
2021/01/26 11:37:42;;;;;;;1.95;1.60;;;21.00;20.50;;;;;;5052108;28;20163;-51
2021/01/26 11:40:09;;;;;;;1.20;1.10;;;21.00;20.40;;;;;;5051756;28;20186;-51
2021/01/26 11:42:35;;;;;;;1.95;1.40;;;21.00;20.40;;;;;;5054303;28;20258;-49
2021/01/26 11:45:07;;;;;;;1.40;1.30;;;21.00;20.40;;;;;;5034238;28;20272;-51
2021/01/26 11:47:33;;;;;;;1.40;1.30;;;21.00;20.30;;;;;;5053283;28;20258;-51
2021/01/26 11:50:01;;;;;;;1.42;1.33;;;21.10;20.40;;;;;;5049958;28;20178;-52
2021/01/26 11:52:27;;;;;;;1.40;1.30;;;21.10;20.30;;;;;;5052937;28;20598;-50
2021/01/26 11:54:53;;;;;;;2.35;1.40;;;21.10;20.30;;;;;;5052034;28;20177;-53
2021/01/26 11:57:19;;;;;;;1.50;1.40;;;21.10;20.20;;;;;;5054805;28;20174;-51
2021/01/26 11:59:45;;;;;;;1.10;1.00;;;21.10;20.20;;;;;;5052478;28;20164;-50
2021/01/26 12:02:10;;;;;;;2.60;1.33;;;21.10;20.20;;;;;;5054144;28;20195;-51
2021/01/26 12:04:36;;;;;;;1.40;1.30;;;21.20;20.10;;;;;;5054285;28;20500;-52
2021/01/26 12:07:02;;;;;;;0.97;0.93;;;21.20;20.30;;;;;;5053603;28;20290;-51
2021/01/26 12:09:27;;;;;;;1.17;1.00;;;20.10;19.20;;;;;;5043898;28;20221;-51
2021/01/26 12:11:53;;;;;;;1.40;1.30;;;21.30;20.00;;;;;;5054201;28;20460;-52
2021/01/26 12:14:19;;;;;;;1.57;1.23;;;21.30;20.00;;;;;;5054606;28;20197;-51
2021/01/26 12:16:45;;;;;;;1.50;1.40;;;21.30;19.90;;;;;;5011961;28;20179;-50
2021/01/26 12:19:13;;;;;;;1.87;1.50;;;21.30;19.80;;;;;;5031036;28;20310;-51
2021/01/26 12:21:38;;;;;;;1.40;1.30;;;21.40;19.80;;;;;;5054376;28;20175;-51
2021/01/26 12:24:04;;;;;;;1.40;1.27;;;21.40;19.70;;;;;;5053911;28;20163;-51
2021/01/26 12:26:30;;;;;;;1.58;1.45;;;21.40;19.70;;;;;;5054124;28;20203;-52
2021/01/26 12:28:56;;;;;;;1.70;1.53;;;21.50;19.70;;;;;;5053911;28;20175;-51
2021/01/26 12:31:21;;;;;;;1.47;1.37;;;21.50;19.70;;;;;;5051189;28;20163;-51
2021/01/26 12:33:50;;;;;;;1.30;1.20;;;21.40;19.60;;;;;;5036413;28;20167;-51
2021/01/26 12:36:15;;;;;;;1.70;1.42;;;21.50;19.70;;;;;;5052525;28;20171;-51
2021/01/26 12:38:41;;;;;;;1.50;1.40;;;21.50;19.70;;;;;;5050562;28;20625;-51
2021/01/26 12:41:07;;;;;;;1.50;1.40;;;21.40;19.60;;;;;;5052969;28;20538;-50
2021/01/26 12:43:32;;;;;;;1.57;1.10;;;21.40;19.60;;;;;;5054302;28;20606;-52
2021/01/26 12:45:58;;;;;;;1.30;1.10;;;21.50;19.70;;;;;;5054063;28;20187;-52
2021/01/26 12:48:24;;;;;;;1.60;1.40;;;21.40;19.60;;;;;;5035281;28;20612;-52
2021/01/26 12:50:50;;;;;;;1.53;1.33;;;21.40;19.70;;;;;;5054017;28;20151;-51
2021/01/26 12:53:15;;;;;;;1.20;0.90;;;21.40;19.70;;;;;;5053915;28;20160;-51
2021/01/26 12:55:41;;;;;;;1.67;1.23;;;21.40;19.70;;;;;;5053419;28;20190;-51
2021/01/26 12:58:08;;;;;;;1.80;1.37;;;21.40;19.70;;;;;;5053893;28;20534;-51
2021/01/26 13:00:34;;;;;;;1.35;1.25;;;21.40;19.70;;;;;;5053921;28;20238;-51
2021/01/26 13:03:00;;;;;;;1.60;1.40;;;21.40;19.70;;;;;;5052476;28;20187;-51
2021/01/26 13:05:26;;;;;;;1.30;1.17;;;21.40;19.70;;;;;;5053414;28;20206;-51
2021/01/26 13:07:52;;;;;;;1.73;1.30;;;21.40;19.60;;;;;;5052038;28;20270;-51
2021/01/26 13:10:19;;;;;;;1.77;1.50;;;21.40;19.60;;;;;;5053930;28;20151;-50
2021/01/26 13:12:45;;;;;;;1.35;1.20;;;21.40;19.60;;;;;;5053308;28;20302;-51
2021/01/26 13:15:20;;;;;;;2.65;1.35;;;21.40;19.60;;;;;;5053484;28;20182;-52
2021/01/26 13:17:46;;;;;;;1.35;1.23;;;22.00;20.00;;;;;;5053240;28;20174;-52
2021/01/26 13:20:13;;;;;;;1.10;1.00;;;21.40;19.70;;;;;;5053140;28;20630;-53